»·PEaware :: SLO717 KLAX-KSAN

SLO717 :: KLAX-KSAN

FLIGHT INFORMATION

Flight Status: Arrived
Operator: Unknown
More flights by this operator :: More flights under this callsign
Pilot: Ty S. (2873)
Aircraft: ECLIPSE 500
(EA50)
More flights by this aircraft type
Origin: KLAX Los Angeles Intl
United States
Destination: KSAN San Diego Intl-Lindbergh
United States
More flights between these airports :: More routes between these airports
Route: +LAXX1 MZB
File this flight plan on PilotEdge
Remarks:
Altitude:
(Current/Filed)
11,000ft
Speed:
(Current/Filed)
300kts
Departed: 16-Feb-20 01:41 PM
Arrived: 16-Feb-20 02:13 PM
Distance/Time
Traveled:
95nm/0:32
Distance/Time
To Go:
Arrived

Flight Plot

Page will automatically refresh every two minutes.

Flight plan parsing failed; only flown route is shown


Map Options




Map Legend


Flown Route
Filed Route
Departure Airport
Arrival Airport
Navaid (VOR, NDB)
Fix

Horizontal Profiles

Position Reports

Time Latitude Longitude Heading Altitude Ground
Speed
16-Feb-20 13:19 33.933997 -118.395381 74 130ft 0kts
16-Feb-20 13:20 33.933997 -118.395381 74 130ft 0kts
16-Feb-20 13:21 33.933997 -118.395381 74 130ft 0kts
16-Feb-20 13:22 33.933997 -118.395381 74 130ft 0kts
16-Feb-20 13:24 33.933997 -118.395381 74 130ft 0kts
16-Feb-20 13:25 33.933997 -118.395381 74 130ft 0kts
16-Feb-20 13:26 33.933997 -118.395381 74 130ft 0kts
16-Feb-20 13:27 33.933997 -118.395381 74 130ft 0kts
16-Feb-20 13:28 33.933997 -118.395381 74 130ft 0kts
16-Feb-20 13:29 33.933997 -118.395381 74 130ft 0kts
16-Feb-20 13:30 33.933997 -118.395381 74 130ft 0kts
16-Feb-20 13:31 33.934241 -118.394142 73 130ft 7kts
16-Feb-20 13:32 33.935222 -118.391546 83 130ft 16kts
16-Feb-20 13:33 33.935736 -118.386536 83 130ft 12kts
16-Feb-20 13:34 33.936448 -118.382780 15 130ft 4kts
16-Feb-20 13:35 33.936459 -118.382777 14 130ft 0kts
16-Feb-20 13:36 33.936459 -118.382777 14 130ft 0kts
16-Feb-20 13:37 33.936459 -118.382777 14 130ft 0kts
16-Feb-20 13:38 33.936459 -118.382777 14 130ft 0kts
16-Feb-20 13:39 33.936459 -118.382777 14 130ft 0kts
16-Feb-20 13:40 33.937330 -118.383037 264 130ft 0kts
16-Feb-20 13:41 33.934573 -118.411936 262 712ft 161kts
16-Feb-20 13:42 33.923777 -118.471073 233 3438ft 198kts
16-Feb-20 13:43 33.876314 -118.496374 172 4994ft 243kts
16-Feb-20 13:44 33.804665 -118.480791 172 4990ft 276kts
16-Feb-20 13:45 33.727313 -118.464623 172 7230ft 289kts
16-Feb-20 13:46 33.647014 -118.448169 172 9040ft 299kts
16-Feb-20 13:47 33.563929 -118.430378 160 10647ft 310kts
16-Feb-20 13:48 33.508490 -118.353239 126 10987ft 314kts
16-Feb-20 13:49 33.455913 -118.269624 126 10991ft 313kts
16-Feb-20 13:50 33.403317 -118.186958 126 10988ft 311kts
16-Feb-20 13:51 33.350791 -118.104662 126 10998ft 311kts
16-Feb-20 13:52 33.303133 -118.019484 101 11002ft 307kts
16-Feb-20 13:53 33.275308 -117.923878 120 10992ft 310kts
16-Feb-20 13:54 33.253818 -117.825262 100 10984ft 307kts
16-Feb-20 13:55 33.234288 -117.725880 100 10984ft 307kts
16-Feb-20 13:56 33.214826 -117.626571 100 10984ft 307kts
16-Feb-20 13:57 33.174524 -117.539162 131 10985ft 312kts
16-Feb-20 13:58 33.117076 -117.463770 131 10075ft 305kts
16-Feb-20 13:59 33.060878 -117.388905 131 8594ft 302kts
16-Feb-20 14:00 33.000196 -117.326884 151 7124ft 287kts
16-Feb-20 14:01 32.931421 -117.279039 151 6985ft 288kts
16-Feb-20 14:02 32.864751 -117.232702 151 6988ft 289kts
16-Feb-20 14:03 32.815695 -117.164852 101 6304ft 282kts
16-Feb-20 14:04 32.799710 -117.073929 101 5002ft 262kts
16-Feb-20 14:05 32.786216 -116.996442 101 4986ft 234kts
16-Feb-20 14:06 32.772695 -116.919798 101 4986ft 239kts
16-Feb-20 14:07 32.721074 -116.897721 191 3990ft 219kts
16-Feb-20 14:08 32.687185 -116.943562 261 3994ft 214kts
16-Feb-20 14:09 32.689154 -117.014424 280 3553ft 223kts
16-Feb-20 14:10 32.705613 -117.077430 289 2462ft 169kts
16-Feb-20 14:11 32.718574 -117.127744 287 1285ft 152kts
16-Feb-20 14:12 32.727478 -117.164448 287 412ft 98kts
16-Feb-20 14:13 32.733772 -117.190448 286 20ft 22kts
16-Feb-20 14:14 32.733985 -117.186663 105 20ft 26kts
16-Feb-20 14:15 32.732411 -117.180232 106 20ft 22kts
16-Feb-20 14:16 32.732339 -117.177022 138 20ft 0kts
16-Feb-20 14:17 32.732339 -117.177022 138 20ft 0kts

Navigation Log

Ident Type
Flight plan parsing failed, navigation log unavailable